sensor_id;sensor_type;location;lat;lon;timestamp;pressure;altitude;pressure_sealevel;temperature;humidity
39699;BME280;25372;50.582;12.250;2023-05-10T00:07:17;99337.03;;;9.42;61.95
39699;BME280;25372;50.582;12.250;2023-05-10T00:17:38;99330.13;;;9.41;63.97
39699;BME280;25372;50.582;12.250;2023-05-10T00:28:01;99315.31;;;9.27;62.20
39699;BME280;25372;50.582;12.250;2023-05-10T00:38:21;99311.88;;;8.86;64.13
39699;BME280;25372;50.582;12.250;2023-05-10T00:48:44;99303.88;;;8.87;69.46
39699;BME280;25372;50.582;12.250;2023-05-10T00:59:06;99304.00;;;8.58;67.22
39699;BME280;25372;50.582;12.250;2023-05-10T01:09:29;99305.25;;;8.80;66.00
39699;BME280;25372;50.582;12.250;2023-05-10T01:19:50;99292.41;;;8.48;67.29
39699;BME280;25372;50.582;12.250;2023-05-10T01:30:27;99288.09;;;8.61;67.19
39699;BME280;25372;50.582;12.250;2023-05-10T01:41:07;99274.88;;;8.21;67.87
39699;BME280;25372;50.582;12.250;2023-05-10T01:51:36;99285.38;;;8.06;67.38
39699;BME280;25372;50.582;12.250;2023-05-10T02:02:01;99277.81;;;8.44;63.88
39699;BME280;25372;50.582;12.250;2023-05-10T02:12:23;99276.25;;;8.41;64.03
39699;BME280;25372;50.582;12.250;2023-05-10T02:22:49;99276.03;;;8.17;64.55
39699;BME280;25372;50.582;12.250;2023-05-10T02:33:11;99267.28;;;8.03;66.74
39699;BME280;25372;50.582;12.250;2023-05-10T02:43:35;99271.28;;;7.80;67.10
39699;BME280;25372;50.582;12.250;2023-05-10T02:53:57;99272.88;;;7.82;73.03
39699;BME280;25372;50.582;12.250;2023-05-10T03:04:22;99281.44;;;7.55;72.47
39699;BME280;25372;50.582;12.250;2023-05-10T03:14:49;99277.28;;;7.67;68.85
39699;BME280;25372;50.582;12.250;2023-05-10T03:25:16;99278.94;;;7.54;73.20
39699;BME280;25372;50.582;12.250;2023-05-10T03:35:37;99259.44;;;7.60;68.96
39699;BME280;25372;50.582;12.250;2023-05-10T03:46:02;99273.81;;;7.52;70.03
39699;BME280;25372;50.582;12.250;2023-05-10T03:56:23;99273.16;;;7.78;68.78
39699;BME280;25372;50.582;12.250;2023-05-10T04:06:46;99277.16;;;7.98;67.37
39699;BME280;25372;50.582;12.250;2023-05-10T04:17:06;99275.84;;;8.05;67.41
39699;BME280;25372;50.582;12.250;2023-05-10T04:27:28;99263.50;;;8.49;69.19
39699;BME280;25372;50.582;12.250;2023-05-10T04:37:49;99274.81;;;9.05;64.26
39699;BME280;25372;50.582;12.250;2023-05-10T04:48:12;99255.47;;;9.33;64.26
39699;BME280;25372;50.582;12.250;2023-05-10T04:58:33;99250.84;;;9.50;64.39
39699;BME280;25372;50.582;12.250;2023-05-10T05:08:55;99251.81;;;10.12;60.99
39699;BME280;25372;50.582;12.250;2023-05-10T05:19:16;99243.22;;;14.64;50.14
39699;BME280;25372;50.582;12.250;2023-05-10T05:29:37;99247.06;;;17.76;43.51
39699;BME280;25372;50.582;12.250;2023-05-10T05:39:58;99240.28;;;17.21;43.47
39699;BME280;25372;50.582;12.250;2023-05-10T05:50:22;99240.19;;;18.76;40.79
39699;BME280;25372;50.582;12.250;2023-05-10T06:00:43;99251.97;;;14.35;50.88
39699;BME280;25372;50.582;12.250;2023-05-10T06:11:05;99254.66;;;13.63;52.45
39699;BME280;25372;50.582;12.250;2023-05-10T06:21:26;99258.00;;;13.75;52.42
39699;BME280;25372;50.582;12.250;2023-05-10T06:31:48;99263.34;;;13.84;52.91
39699;BME280;25372;50.582;12.250;2023-05-10T06:42:09;99259.31;;;14.41;52.80
39699;BME280;25372;50.582;12.250;2023-05-10T06:52:31;99256.53;;;14.33;53.08
39699;BME280;25372;50.582;12.250;2023-05-10T07:02:52;99258.78;;;14.47;51.43
39699;BME280;25372;50.582;12.250;2023-05-10T07:13:14;99254.09;;;14.80;51.84
39699;BME280;25372;50.582;12.250;2023-05-10T07:23:35;99251.19;;;14.93;50.43
39699;BME280;25372;50.582;12.250;2023-05-10T07:33:57;99263.53;;;15.32;49.78
39699;BME280;25372;50.582;12.250;2023-05-10T07:44:18;99267.06;;;15.61;49.27
39699;BME280;25372;50.582;12.250;2023-05-10T07:54:41;99263.75;;;15.87;49.35
39699;BME280;25372;50.582;12.250;2023-05-10T08:05:02;99260.69;;;16.19;48.21
39699;BME280;25372;50.582;12.250;2023-05-10T08:15:25;99252.03;;;16.27;49.24
39699;BME280;25372;50.582;12.250;2023-05-10T08:25:46;99259.84;;;16.83;47.48
39699;BME280;25372;50.582;12.250;2023-05-10T08:36:09;99267.50;;;19.11;42.91
39699;BME280;25372;50.582;12.250;2023-05-10T08:46:30;99274.53;;;21.04;39.76
39699;BME280;25372;50.582;12.250;2023-05-10T08:56:55;99290.63;;;22.39;37.31
39699;BME280;25372;50.582;12.250;2023-05-10T09:07:16;99289.78;;;21.33;37.97
39699;BME280;25372;50.582;12.250;2023-05-10T09:17:40;99289.66;;;23.56;38.24
39699;BME280;25372;50.582;12.250;2023-05-10T09:28:01;99291.03;;;21.07;40.29
39699;BME280;25372;50.582;12.250;2023-05-10T09:38:23;99295.88;;;18.94;45.29
39699;BME280;25372;50.582;12.250;2023-05-10T09:48:46;99297.91;;;19.17;45.23
39699;BME280;25372;50.582;12.250;2023-05-10T09:59:10;99310.97;;;20.33;44.61
39699;BME280;25372;50.582;12.250;2023-05-10T10:09:33;99294.06;;;19.53;42.46
39699;BME280;25372;50.582;12.250;2023-05-10T10:19:57;99304.22;;;19.41;44.16
39699;BME280;25372;50.582;12.250;2023-05-10T10:30:25;99298.91;;;19.33;43.34
39699;BME280;25372;50.582;12.250;2023-05-10T10:41:01;99295.63;;;19.87;42.68
39699;BME280;25372;50.582;12.250;2023-05-10T10:51:22;99301.03;;;19.70;45.08
39699;BME280;25372;50.582;12.250;2023-05-10T11:01:44;99309.84;;;19.63;45.43
39699;BME280;25372;50.582;12.250;2023-05-10T11:12:08;99315.78;;;19.90;43.93
39699;BME280;25372;50.582;12.250;2023-05-10T11:22:48;99309.09;;;20.02;42.70
39699;BME280;25372;50.582;12.250;2023-05-10T11:33:15;99310.53;;;20.21;45.38
39699;BME280;25372;50.582;12.250;2023-05-10T11:43:38;99318.63;;;19.96;43.55
39699;BME280;25372;50.582;12.250;2023-05-10T11:54:00;99318.94;;;20.42;44.46
39699;BME280;25372;50.582;12.250;2023-05-10T12:04:22;99313.09;;;20.70;43.23
39699;BME280;25372;50.582;12.250;2023-05-10T12:14:43;99317.22;;;21.27;41.52
39699;BME280;25372;50.582;12.250;2023-05-10T12:25:07;99324.13;;;20.66;40.83
39699;BME280;25372;50.582;12.250;2023-05-10T12:35:32;99335.88;;;20.49;42.56
39699;BME280;25372;50.582;12.250;2023-05-10T12:45:54;99337.94;;;20.70;42.55
39699;BME280;25372;50.582;12.250;2023-05-10T12:56:15;99345.75;;;20.72;39.98
39699;BME280;25372;50.582;12.250;2023-05-10T13:06:37;99358.59;;;21.23;40.72
39699;BME280;25372;50.582;12.250;2023-05-10T13:16:58;99345.88;;;20.78;39.03
39699;BME280;25372;50.582;12.250;2023-05-10T13:27:20;99357.38;;;21.10;39.31
39699;BME280;25372;50.582;12.250;2023-05-10T13:37:41;99354.63;;;21.81;40.23
39699;BME280;25372;50.582;12.250;2023-05-10T13:48:03;99348.44;;;22.55;38.22
39699;BME280;25372;50.582;12.250;2023-05-10T13:58:24;99344.09;;;22.54;38.77
39699;BME280;25372;50.582;12.250;2023-05-10T14:08:46;99351.19;;;21.33;42.47
39699;BME280;25372;50.582;12.250;2023-05-10T14:19:07;99347.94;;;21.23;45.77
39699;BME280;25372;50.582;12.250;2023-05-10T14:29:29;99354.03;;;20.53;47.34
39699;BME280;25372;50.582;12.250;2023-05-10T14:39:49;99339.84;;;21.55;45.52
39699;BME280;25372;50.582;12.250;2023-05-10T14:50:11;99344.09;;;19.99;50.22
39699;BME280;25372;50.582;12.250;2023-05-10T15:00:32;99350.47;;;19.56;52.78
39699;BME280;25372;50.582;12.250;2023-05-10T15:10:54;99351.63;;;19.46;53.10
39699;BME280;25372;50.582;12.250;2023-05-10T15:21:15;99369.56;;;19.68;53.51
39699;BME280;25372;50.582;12.250;2023-05-10T15:31:37;99367.03;;;18.84;55.57
39699;BME280;25372;50.582;12.250;2023-05-10T15:41:58;99372.00;;;18.36;55.15
39699;BME280;25372;50.582;12.250;2023-05-10T15:52:22;99372.56;;;17.60;59.34
39699;BME280;25372;50.582;12.250;2023-05-10T16:02:43;99381.03;;;17.37;58.44
39699;BME280;25372;50.582;12.250;2023-05-10T16:13:05;99383.38;;;17.22;57.92
39699;BME280;25372;50.582;12.250;2023-05-10T16:23:26;99393.13;;;17.22;57.79
39699;BME280;25372;50.582;12.250;2023-05-10T16:33:48;99401.19;;;17.30;58.02
39699;BME280;25372;50.582;12.250;2023-05-10T16:44:09;99421.66;;;16.91;57.75
39699;BME280;25372;50.582;12.250;2023-05-10T16:54:32;99428.94;;;16.61;59.20
39699;BME280;25372;50.582;12.250;2023-05-10T17:04:52;99433.69;;;16.58;59.28
39699;BME280;25372;50.582;12.250;2023-05-10T17:15:16;99440.91;;;16.66;59.39
39699;BME280;25372;50.582;12.250;2023-05-10T17:25:37;99451.56;;;16.18;61.53
39699;BME280;25372;50.582;12.250;2023-05-10T17:35:59;99454.78;;;15.82;61.64
39699;BME280;25372;50.582;12.250;2023-05-10T17:46:19;99469.56;;;15.65;64.27
39699;BME280;25372;50.582;12.250;2023-05-10T17:56:42;99478.03;;;15.59;65.43
39699;BME280;25372;50.582;12.250;2023-05-10T18:07:03;99478.75;;;15.41;66.18
39699;BME280;25372;50.582;12.250;2023-05-10T18:17:24;99480.63;;;15.00;67.04
39699;BME280;25372;50.582;12.250;2023-05-10T18:27:46;99484.47;;;14.86;67.20
39699;BME280;25372;50.582;12.250;2023-05-10T18:38:08;99497.94;;;14.82;66.88
39699;BME280;25372;50.582;12.250;2023-05-10T18:48:31;99499.16;;;14.47;68.43
39699;BME280;25372;50.582;12.250;2023-05-10T18:58:54;99508.56;;;14.40;68.77
39699;BME280;25372;50.582;12.250;2023-05-10T19:09:15;99521.13;;;13.84;70.30
39699;BME280;25372;50.582;12.250;2023-05-10T19:19:40;99542.59;;;13.47;72.60
39699;BME280;25372;50.582;12.250;2023-05-10T19:30:00;99550.56;;;13.68;73.02
39699;BME280;25372;50.582;12.250;2023-05-10T19:40:23;99544.34;;;13.57;73.24
39699;BME280;25372;50.582;12.250;2023-05-10T19:50:44;99556.72;;;13.34;75.06
39699;BME280;25372;50.582;12.250;2023-05-10T20:01:06;99559.00;;;12.70;76.81
39699;BME280;25372;50.582;12.250;2023-05-10T20:11:27;99550.97;;;12.02;79.77
39699;BME280;25372;50.582;12.250;2023-05-10T20:21:50;99560.91;;;11.61;80.96
39699;BME280;25372;50.582;12.250;2023-05-10T20:32:11;99556.78;;;11.32;82.57
39699;BME280;25372;50.582;12.250;2023-05-10T20:42:33;99553.47;;;11.04;83.60
39699;BME280;25372;50.582;12.250;2023-05-10T20:52:54;99567.28;;;10.82;84.11
39699;BME280;25372;50.582;12.250;2023-05-10T21:03:15;99560.34;;;10.55;84.20
39699;BME280;25372;50.582;12.250;2023-05-10T21:13:36;99563.03;;;10.41;84.78
39699;BME280;25372;50.582;12.250;2023-05-10T21:23:58;99562.91;;;10.29;85.26
39699;BME280;25372;50.582;12.250;2023-05-10T21:34:19;99569.59;;;10.07;85.51
39699;BME280;25372;50.582;12.250;2023-05-10T21:44:41;99565.44;;;9.90;86.80
39699;BME280;25372;50.582;12.250;2023-05-10T21:55:02;99572.94;;;9.97;86.15
39699;BME280;25372;50.582;12.250;2023-05-10T22:05:25;99570.56;;;9.79;86.33
39699;BME280;25372;50.582;12.250;2023-05-10T22:15:46;99572.63;;;10.01;86.50
39699;BME280;25372;50.582;12.250;2023-05-10T22:26:08;99579.41;;;9.91;86.45
39699;BME280;25372;50.582;12.250;2023-05-10T22:36:29;99577.25;;;10.11;86.21
39699;BME280;25372;50.582;12.250;2023-05-10T22:46:51;99570.03;;;10.14;86.23
39699;BME280;25372;50.582;12.250;2023-05-10T22:57:12;99576.34;;;10.25;86.89
39699;BME280;25372;50.582;12.250;2023-05-10T23:07:34;99571.78;;;10.54;86.21
39699;BME280;25372;50.582;12.250;2023-05-10T23:17:55;99584.91;;;10.54;86.09
39699;BME280;25372;50.582;12.250;2023-05-10T23:28:20;99581.66;;;10.51;85.74
39699;BME280;25372;50.582;12.250;2023-05-10T23:38:41;99577.78;;;10.43;85.17
39699;BME280;25372;50.582;12.250;2023-05-10T23:49:03;99580.88;;;10.35;85.70
39699;BME280;25372;50.582;12.250;2023-05-10T23:59:24;99577.69;;;10.17;85.93
